createdAt,value
2018-10-03T00:01:49.158Z,18.78
2018-10-03T00:04:19.687Z,18.81
2018-10-03T00:06:50.268Z,18.99
2018-10-03T00:09:19.844Z,18.99
2018-10-03T00:11:50.959Z,19.17
2018-10-03T00:14:24.976Z,19.18
2018-10-03T00:16:54.920Z,19.17
2018-10-03T00:19:26.633Z,19.15
2018-10-03T00:22:01.967Z,19.14
2018-10-03T00:24:32.004Z,19.17
2018-10-03T00:27:09.040Z,19.19
2018-10-03T00:29:39.051Z,19.14
2018-10-03T00:32:13.499Z,19.52
2018-10-03T00:34:51.434Z,19.21
2018-10-03T00:37:21.422Z,19.33
2018-10-03T00:39:52.234Z,18.63
2018-10-03T00:42:24.155Z,18.41
2018-10-03T00:44:54.755Z,18.26
2018-10-03T00:47:25.358Z,18.22
2018-10-03T00:49:56.694Z,18.02
2018-10-03T00:52:28.369Z,18.17
2018-10-03T00:54:59.895Z,18.18
2018-10-03T00:57:32.968Z,18.09
2018-10-03T01:00:04.981Z,18.31
2018-10-03T01:02:35.512Z,18.35
2018-10-03T01:05:10.311Z,18.36
2018-10-03T01:07:41.374Z,18.45
2018-10-03T01:10:17.537Z,18.54
2018-10-03T01:12:49.326Z,18.33
2018-10-03T01:15:19.829Z,18.30
2018-10-03T01:17:50.289Z,18.16
2018-10-03T01:20:22.214Z,18.17
2018-10-03T01:22:53.577Z,18.11
2018-10-03T01:25:29.209Z,18.21
2018-10-03T01:27:59.480Z,18.33
2018-10-03T01:30:30.869Z,17.98
2018-10-03T01:33:00.939Z,18.05
2018-10-03T01:35:30.678Z,17.94
2018-10-03T01:38:01.575Z,17.86
2018-10-03T01:40:32.429Z,17.84
2018-10-03T01:43:05.643Z,17.63
2018-10-03T01:45:36.018Z,17.70
2018-10-03T01:48:07.944Z,17.56
2018-10-03T01:50:44.617Z,17.73
2018-10-03T01:53:15.758Z,17.58
2018-10-03T01:55:50.070Z,17.54
2018-10-03T01:58:23.379Z,17.64
2018-10-03T02:00:55.776Z,17.51
2018-10-03T02:03:29.369Z,17.60
2018-10-03T02:06:02.163Z,17.44
2018-10-03T02:08:36.275Z,17.82
2018-10-03T02:11:21.195Z,17.47
2018-10-03T02:13:52.670Z,17.39
2018-10-03T02:16:24.529Z,17.46
2018-10-03T02:18:54.506Z,17.57
2018-10-03T02:21:25.204Z,17.62
2018-10-03T02:23:56.172Z,17.56
2018-10-03T02:26:26.823Z,17.62
2018-10-03T02:28:57.385Z,17.41
2018-10-03T02:31:32.926Z,17.28
2018-10-03T02:34:06.141Z,17.44
2018-10-03T02:36:37.757Z,17.34
2018-10-03T02:39:08.619Z,17.31
2018-10-03T02:41:40.600Z,17.39
2018-10-03T02:44:09.761Z,17.25
2018-10-03T02:46:39.572Z,17.28
2018-10-03T02:49:10.055Z,17.33
2018-10-03T02:51:39.209Z,17.23
2018-10-03T02:54:08.349Z,17.21
2018-10-03T02:56:40.177Z,17.10
2018-10-03T02:59:10.903Z,17.25
2018-10-03T03:01:41.595Z,17.12
2018-10-03T03:04:12.213Z,17.15
2018-10-03T03:06:42.657Z,17.40
2018-10-03T03:09:17.029Z,17.28
2018-10-03T03:11:52.530Z,17.39
2018-10-03T03:14:26.103Z,17.18
2018-10-03T03:16:57.609Z,16.97
2018-10-03T03:19:30.382Z,17.23
2018-10-03T03:22:03.971Z,16.83
2018-10-03T03:24:34.653Z,17.16
2018-10-03T03:27:04.905Z,16.96
2018-10-03T03:29:35.843Z,17.05
2018-10-03T03:32:05.403Z,17.00
2018-10-03T03:34:34.595Z,16.92
2018-10-03T03:37:03.763Z,16.87
2018-10-03T03:39:34.494Z,16.83
2018-10-03T03:42:04.671Z,16.83
2018-10-03T03:44:35.304Z,16.80
2018-10-03T03:47:04.433Z,16.87
2018-10-03T03:49:33.530Z,16.80
2018-10-03T03:52:03.375Z,16.75
2018-10-03T03:54:32.668Z,16.83
2018-10-03T03:57:01.834Z,16.92
2018-10-03T03:59:31.292Z,16.72
2018-10-03T04:02:00.410Z,16.94
2018-10-03T04:04:29.550Z,16.69
2018-10-03T04:06:58.768Z,16.86
2018-10-03T04:09:28.178Z,16.87
2018-10-03T04:11:57.323Z,17.07
2018-10-03T04:14:26.586Z,17.01
2018-10-03T04:16:55.683Z,16.87
2018-10-03T04:19:24.820Z,17.16
2018-10-03T04:21:53.977Z,17.08
2018-10-03T04:24:23.027Z,16.98
2018-10-03T04:26:52.147Z,16.93
2018-10-03T04:29:21.605Z,16.74
2018-10-03T04:31:52.059Z,16.83
2018-10-03T04:34:21.170Z,16.96
2018-10-03T04:36:50.321Z,16.82
2018-10-03T04:39:19.861Z,17.01
2018-10-03T04:41:49.676Z,16.88
2018-10-03T04:44:19.571Z,17.02
2018-10-03T04:46:49.702Z,17.03
2018-10-03T04:49:18.805Z,17.16
2018-10-03T04:51:48.247Z,17.17
2018-10-03T04:54:17.360Z,17.33
2018-10-03T04:56:46.499Z,17.11
2018-10-03T04:59:15.922Z,16.93
2018-10-03T05:01:45.081Z,17.13
2018-10-03T05:04:14.352Z,17.48
2018-10-03T05:06:43.970Z,17.92
2018-10-03T05:09:13.092Z,17.58
2018-10-03T05:11:42.217Z,17.50
2018-10-03T05:14:12.516Z,17.65
2018-10-03T05:16:42.466Z,17.36
2018-10-03T05:19:12.121Z,17.31
2018-10-03T05:21:41.396Z,17.40
2018-10-03T05:24:10.592Z,17.37
2018-10-03T05:26:39.754Z,17.16
2018-10-03T05:29:09.315Z,17.36
2018-10-03T05:31:38.514Z,17.34
2018-10-03T05:34:08.998Z,17.30
2018-10-03T05:36:39.406Z,17.29
2018-10-03T05:39:11.659Z,17.39
2018-10-03T05:41:41.125Z,17.36
2018-10-03T05:44:14.486Z,17.35
2018-10-03T05:46:44.391Z,17.48
2018-10-03T05:49:13.785Z,17.40
2018-10-03T05:51:43.713Z,17.43
2018-10-03T05:54:12.939Z,17.66
2018-10-03T05:56:42.099Z,17.33
2018-10-03T05:59:11.324Z,17.49
2018-10-03T06:01:41.666Z,17.47
2018-10-03T06:04:12.003Z,17.48
2018-10-03T06:06:41.886Z,17.37
2018-10-03T06:09:13.285Z,17.49
2018-10-03T06:11:43.633Z,17.41
2018-10-03T06:14:14.190Z,17.49
2018-10-03T06:16:43.392Z,17.82
2018-10-03T06:19:14.756Z,17.90
2018-10-03T06:21:44.004Z,17.90
2018-10-03T06:24:13.943Z,17.82
2018-10-03T06:26:43.380Z,18.11
2018-10-03T06:29:12.916Z,17.88
2018-10-03T06:31:42.217Z,18.05
2018-10-03T06:34:12.242Z,18.07
2018-10-03T06:36:42.403Z,18.14
2018-10-03T06:39:11.954Z,18.43
2018-10-03T06:41:41.941Z,18.55
2018-10-03T06:44:12.427Z,18.25
2018-10-03T06:46:41.620Z,18.56
2018-10-03T06:49:10.860Z,18.67
2018-10-03T06:51:40.996Z,18.62
2018-10-03T06:54:10.798Z,18.43
2018-10-03T06:56:40.987Z,18.39
2018-10-03T06:59:14.046Z,18.30
2018-10-03T07:01:43.599Z,18.41
2018-10-03T07:04:12.899Z,18.48
2018-10-03T07:06:42.334Z,18.40
2018-10-03T07:09:11.855Z,18.50
2018-10-03T07:11:41.078Z,18.79
2018-10-03T07:14:10.289Z,18.84
2018-10-03T07:16:42.488Z,18.69
2018-10-03T07:19:16.120Z,18.79
2018-10-03T07:21:45.599Z,18.92
2018-10-03T07:24:14.812Z,18.90
2018-10-03T07:26:45.253Z,18.95
2018-10-03T07:29:15.509Z,19.21
2018-10-03T07:31:44.681Z,19.02
2018-10-03T07:34:13.834Z,19.16
2018-10-03T07:36:43.426Z,19.40
2018-10-03T07:39:14.472Z,19.38
2018-10-03T07:41:45.704Z,19.29
2018-10-03T07:44:14.927Z,19.31
2018-10-03T07:46:45.772Z,19.42
2018-10-03T07:49:15.687Z,19.66
2018-10-03T07:51:45.149Z,19.60
2018-10-03T07:54:14.966Z,19.54
2018-10-03T07:56:45.063Z,19.78
2018-10-03T07:59:14.425Z,19.76
2018-10-03T08:01:44.780Z,19.92
2018-10-03T08:04:13.973Z,20.12
2018-10-03T08:06:45.396Z,20.15
2018-10-03T08:09:14.570Z,20.46
2018-10-03T08:11:45.605Z,20.71
2018-10-03T08:14:15.710Z,21.05
2018-10-03T08:16:45.445Z,21.04
2018-10-03T08:19:14.817Z,21.34
2018-10-03T08:21:45.185Z,21.32
2018-10-03T08:24:14.752Z,21.28
2018-10-03T08:26:44.003Z,21.48
2018-10-03T08:29:13.244Z,21.37
2018-10-03T08:31:42.413Z,21.35
2018-10-03T08:34:11.588Z,21.71
2018-10-03T08:36:41.181Z,21.56
2018-10-03T08:39:13.856Z,21.55
2018-10-03T08:41:43.453Z,21.91
2018-10-03T08:44:12.632Z,22.06
2018-10-03T08:46:42.707Z,21.89
2018-10-03T08:49:12.297Z,21.93
2018-10-03T08:51:41.552Z,22.31
2018-10-03T08:54:11.037Z,21.76
2018-10-03T08:56:40.260Z,21.40
2018-10-03T08:59:15.727Z,21.70
2018-10-03T09:01:44.933Z,21.48
2018-10-03T09:04:14.182Z,22.29
2018-10-03T09:06:43.364Z,21.87
2018-10-03T09:09:12.843Z,22.02
2018-10-03T09:11:42.136Z,22.41
2018-10-03T09:14:11.768Z,22.61
2018-10-03T09:16:41.041Z,22.60
2018-10-03T09:19:10.374Z,22.56
2018-10-03T09:21:48.356Z,22.66
2018-10-03T09:24:17.776Z,22.68
2018-10-03T09:26:47.949Z,22.60
2018-10-03T09:29:17.534Z,22.78
2018-10-03T09:31:47.754Z,23.06
2018-10-03T09:34:16.957Z,23.89
2018-10-03T09:36:46.401Z,23.38
2018-10-03T09:39:15.704Z,23.19
2018-10-03T09:41:45.311Z,22.73
2018-10-03T09:44:14.814Z,22.60
2018-10-03T09:46:45.854Z,22.86
2018-10-03T09:49:15.107Z,23.13
2018-10-03T09:51:44.297Z,23.21
2018-10-03T09:54:14.292Z,23.62
2018-10-03T09:56:43.972Z,23.56
2018-10-03T09:59:15.068Z,23.99
2018-10-03T10:01:44.340Z,24.40
2018-10-03T10:04:13.671Z,23.89
2018-10-03T10:06:55.899Z,23.78
2018-10-03T10:09:25.019Z,24.03
2018-10-03T10:11:54.346Z,24.23
2018-10-03T10:14:24.470Z,24.35
2018-10-03T10:16:53.595Z,24.36
2018-10-03T10:19:22.691Z,24.21
2018-10-03T10:21:51.865Z,24.18
2018-10-03T10:24:20.951Z,23.89
2018-10-03T10:26:50.034Z,23.94
2018-10-03T10:29:19.503Z,23.86
2018-10-03T10:31:48.580Z,24.01
2018-10-03T10:34:17.602Z,24.05
2018-10-03T10:36:46.705Z,24.02
2018-10-03T10:39:15.779Z,24.08
2018-10-03T10:41:44.854Z,24.42
2018-10-03T10:44:15.944Z,24.29
2018-10-03T10:46:45.099Z,24.38
2018-10-03T10:49:15.121Z,24.73
2018-10-03T10:51:44.268Z,24.71
2018-10-03T10:54:13.381Z,24.30
2018-10-03T10:56:42.513Z,24.50
2018-10-03T10:59:11.622Z,24.70
2018-10-03T11:01:40.694Z,24.93
2018-10-03T11:04:09.781Z,24.92
2018-10-03T11:06:40.416Z,25.32
2018-10-03T11:09:09.400Z,25.42
2018-10-03T11:11:38.505Z,25.41
2018-10-03T11:14:08.223Z,25.50
2018-10-03T11:16:37.305Z,25.28
2018-10-03T11:19:06.416Z,25.49
2018-10-03T11:21:35.823Z,26.15
2018-10-03T11:24:04.964Z,26.35
2018-10-03T11:26:34.128Z,25.53
2018-10-03T11:29:03.625Z,25.51
2018-10-03T11:31:32.772Z,25.23
2018-10-03T11:34:01.931Z,25.86
2018-10-03T11:36:31.067Z,26.13
2018-10-03T11:39:00.149Z,25.93
2018-10-03T11:41:29.280Z,25.78
2018-10-03T11:43:58.447Z,26.29
2018-10-03T11:46:27.512Z,26.28
2018-10-03T11:48:56.592Z,27.14
2018-10-03T11:51:25.722Z,27.03
2018-10-03T11:53:54.773Z,26.85
2018-10-03T11:56:23.858Z,26.32
2018-10-03T11:58:53.006Z,26.21
2018-10-03T12:01:22.094Z,26.85
2018-10-03T12:03:51.199Z,26.24
2018-10-03T12:06:20.407Z,26.14
2018-10-03T12:08:49.431Z,25.84
2018-10-03T12:11:18.508Z,26.11
2018-10-03T12:13:47.923Z,25.75
2018-10-03T12:16:17.026Z,25.67
2018-10-03T12:18:46.110Z,26.20
2018-10-03T12:21:15.291Z,26.42
2018-10-03T12:23:44.925Z,26.08
2018-10-03T12:26:14.035Z,25.80
2018-10-03T12:28:46.829Z,26.32
2018-10-03T12:31:15.926Z,26.15
2018-10-03T12:33:45.063Z,26.40
2018-10-03T12:36:14.186Z,26.14
2018-10-03T12:38:43.261Z,26.25
2018-10-03T12:41:12.386Z,26.15
2018-10-03T12:43:43.659Z,25.91
2018-10-03T12:46:12.732Z,25.91
2018-10-03T12:48:41.902Z,26.60
2018-10-03T12:51:11.083Z,26.06
2018-10-03T12:53:40.237Z,26.37
2018-10-03T12:56:09.455Z,26.31
2018-10-03T12:58:38.897Z,26.40
2018-10-03T13:01:08.463Z,26.64
2018-10-03T13:03:37.579Z,26.88
2018-10-03T13:06:06.734Z,26.41
2018-10-03T13:08:36.880Z,26.90
2018-10-03T13:11:05.996Z,26.91
2018-10-03T13:13:35.437Z,26.48
2018-10-03T13:16:09.756Z,26.58
2018-10-03T13:18:38.970Z,26.73
2018-10-03T13:21:08.055Z,26.05
2018-10-03T13:23:37.185Z,25.93
2018-10-03T13:26:06.453Z,25.87
2018-10-03T13:28:35.524Z,25.86
2018-10-03T13:31:04.612Z,25.77
2018-10-03T13:33:34.090Z,26.03
2018-10-03T13:36:03.313Z,25.71
2018-10-03T13:38:32.788Z,26.22
2018-10-03T13:41:02.252Z,25.82
2018-10-03T13:43:31.974Z,25.88
2018-10-03T13:46:02.005Z,26.41
2018-10-03T13:48:32.972Z,25.78
2018-10-03T13:51:02.297Z,25.71
2018-10-03T13:53:31.518Z,25.45
2018-10-03T13:56:01.158Z,25.23
2018-10-03T13:58:30.645Z,25.49
2018-10-03T14:01:00.062Z,26.39
2018-10-03T14:03:29.629Z,26.09
2018-10-03T14:05:58.756Z,25.47
2018-10-03T14:08:27.943Z,25.91
2018-10-03T14:10:57.721Z,25.62
2018-10-03T14:13:26.788Z,25.75
2018-10-03T14:15:55.970Z,26.00
2018-10-03T14:18:25.437Z,26.19
2018-10-03T14:20:54.995Z,26.23
2018-10-03T14:23:24.143Z,26.73
2018-10-03T14:25:53.678Z,27.17
2018-10-03T14:28:22.821Z,26.98
2018-10-03T14:30:51.966Z,26.26
2018-10-03T14:33:21.628Z,25.64
2018-10-03T14:35:50.721Z,26.12
2018-10-03T14:38:19.886Z,25.66
2018-10-03T14:40:50.123Z,25.56
2018-10-03T14:43:19.269Z,25.45
2018-10-03T14:45:48.466Z,25.47
2018-10-03T14:48:18.363Z,25.38
2018-10-03T14:50:47.537Z,25.17
2018-10-03T14:53:17.226Z,25.13
2018-10-03T14:55:46.671Z,24.73
2018-10-03T14:58:15.865Z,24.88
2018-10-03T15:00:45.620Z,24.72
2018-10-03T15:03:15.441Z,24.82
2018-10-03T15:05:45.241Z,24.73
2018-10-03T15:08:14.411Z,24.70
2018-10-03T15:10:43.951Z,24.72
2018-10-03T15:13:14.379Z,24.65
2018-10-03T15:15:43.586Z,24.53
2018-10-03T15:18:12.884Z,24.53
2018-10-03T15:20:42.744Z,24.59
2018-10-03T15:23:13.556Z,24.54
2018-10-03T15:25:42.671Z,24.55
2018-10-03T15:28:12.114Z,24.44
2018-10-03T15:30:42.071Z,24.52
2018-10-03T15:33:11.270Z,24.49
2018-10-03T15:35:40.472Z,24.46
2018-10-03T15:38:10.052Z,24.43
2018-10-03T15:40:39.265Z,24.41
2018-10-03T15:43:08.872Z,24.52
2018-10-03T15:45:38.461Z,24.43
2018-10-03T15:48:08.679Z,24.50
2018-10-03T15:50:37.958Z,24.60
2018-10-03T15:53:07.207Z,24.56
2018-10-03T15:55:36.322Z,24.47
2018-10-03T15:58:06.720Z,24.32
2018-10-03T16:00:36.250Z,24.20
2018-10-03T16:03:05.459Z,24.23
2018-10-03T16:05:34.681Z,24.24
2018-10-03T16:08:05.295Z,24.18
2018-10-03T16:10:34.473Z,24.07
2018-10-03T16:13:03.692Z,24.22
2018-10-03T16:15:33.595Z,23.98
2018-10-03T16:18:03.251Z,23.86
2018-10-03T16:20:32.561Z,23.96
2018-10-03T16:23:02.098Z,23.78
2018-10-03T16:25:31.537Z,23.65
2018-10-03T16:28:00.722Z,23.73
2018-10-03T16:30:30.265Z,23.52
2018-10-03T16:32:59.458Z,23.72
2018-10-03T16:35:28.620Z,23.81
2018-10-03T16:37:58.125Z,23.77
2018-10-03T16:40:27.358Z,23.82
2018-10-03T16:42:56.488Z,23.80
2018-10-03T16:45:25.768Z,23.69
2018-10-03T16:47:55.289Z,23.60
2018-10-03T16:50:24.494Z,23.66
2018-10-03T16:52:53.722Z,23.55
2018-10-03T16:55:22.937Z,23.49
2018-10-03T16:57:52.172Z,23.63
2018-10-03T17:00:21.670Z,23.60
2018-10-03T17:02:50.847Z,23.53
2018-10-03T17:05:20.864Z,23.43
2018-10-03T17:07:50.093Z,23.47
2018-10-03T17:10:19.621Z,23.35
2018-10-03T17:12:48.802Z,23.15
2018-10-03T17:15:18.092Z,23.07
2018-10-03T17:17:47.633Z,23.26
2018-10-03T17:20:16.847Z,23.30
2018-10-03T17:22:47.220Z,23.25
2018-10-03T17:25:16.404Z,23.30
2018-10-03T17:27:45.632Z,23.26
2018-10-03T17:30:14.905Z,23.47
2018-10-03T17:32:44.494Z,23.48
2018-10-03T17:35:13.659Z,23.16
2018-10-03T17:37:42.872Z,23.43
2018-10-03T17:40:13.060Z,23.28
2018-10-03T17:42:42.202Z,23.32
2018-10-03T17:45:12.417Z,23.24
2018-10-03T17:47:41.635Z,23.24
2018-10-03T17:50:10.814Z,23.24
2018-10-03T17:52:40.382Z,23.08
2018-10-03T17:55:10.542Z,23.13
2018-10-03T17:57:40.002Z,22.96
2018-10-03T18:00:10.215Z,22.86
2018-10-03T18:02:39.412Z,22.74
2018-10-03T18:05:08.691Z,22.85
2018-10-03T18:07:37.987Z,22.67
2018-10-03T18:10:07.354Z,22.47
2018-10-03T18:12:36.598Z,22.51
2018-10-03T18:15:06.332Z,22.34
2018-10-03T18:17:35.528Z,22.15
2018-10-03T18:20:04.899Z,22.03
2018-10-03T18:22:34.130Z,21.92
2018-10-03T18:25:03.387Z,21.84
2018-10-03T18:27:32.580Z,21.50
2018-10-03T18:30:01.801Z,21.47
2018-10-03T18:32:31.270Z,21.73
2018-10-03T18:35:01.504Z,21.50
2018-10-03T18:37:31.247Z,21.59
2018-10-03T18:40:00.485Z,21.69
2018-10-03T18:42:30.637Z,21.55
2018-10-03T18:45:00.413Z,21.60
2018-10-03T18:47:29.601Z,21.38
2018-10-03T18:49:58.817Z,21.35
2018-10-03T18:52:28.531Z,21.50
2018-10-03T18:54:58.534Z,21.39
2018-10-03T18:57:27.771Z,21.46
2018-10-03T18:59:57.329Z,21.48
2018-10-03T19:02:26.554Z,21.69
2018-10-03T19:04:55.726Z,21.56
2018-10-03T19:07:24.947Z,21.58
2018-10-03T19:09:54.112Z,21.38
2018-10-03T19:12:23.389Z,21.19
2018-10-03T19:14:53.349Z,21.15
2018-10-03T19:17:22.618Z,21.28
2018-10-03T19:19:52.547Z,21.16
2018-10-03T19:24:54.294Z,21.08
2018-10-03T19:27:23.512Z,21.35
2018-10-03T19:29:52.724Z,21.37
2018-10-03T19:32:23.287Z,21.17
2018-10-03T19:34:53.511Z,21.08
2018-10-03T19:37:24.157Z,21.13
2018-10-03T19:39:54.886Z,21.18
2018-10-03T19:42:24.114Z,21.21
2018-10-03T19:44:54.285Z,21.26
2018-10-03T19:47:23.870Z,21.19
2018-10-03T19:49:53.022Z,21.13
2018-10-03T19:52:22.958Z,21.00
2018-10-03T19:54:52.179Z,21.10
2018-10-03T19:57:21.341Z,20.88
2018-10-03T19:59:50.609Z,20.80
2018-10-03T20:02:19.797Z,20.60
2018-10-03T20:04:49.001Z,20.59
2018-10-03T20:07:18.513Z,20.77
2018-10-03T20:09:47.850Z,20.71
2018-10-03T20:12:17.063Z,20.47
2018-10-03T20:14:46.527Z,20.41
2018-10-03T20:17:15.706Z,20.29
2018-10-03T20:19:44.961Z,20.13
2018-10-03T20:22:14.194Z,20.05
2018-10-03T20:24:43.293Z,19.99
2018-10-03T20:27:13.137Z,20.12
2018-10-03T20:29:42.408Z,20.27
2018-10-03T20:32:12.372Z,20.28
2018-10-03T20:34:41.553Z,20.15
2018-10-03T20:37:10.781Z,20.27
2018-10-03T20:39:39.928Z,20.36
2018-10-03T20:42:09.313Z,20.33
2018-10-03T20:44:38.555Z,20.35
2018-10-03T20:47:07.771Z,20.42
2018-10-03T20:49:36.973Z,20.39
2018-10-03T20:52:06.632Z,20.34
2018-10-03T20:54:36.389Z,20.20
2018-10-03T20:57:06.335Z,20.18
2018-10-03T20:59:35.551Z,20.09
2018-10-03T21:02:04.743Z,20.06
2018-10-03T21:04:33.897Z,20.07
2018-10-03T21:07:03.105Z,19.94
2018-10-03T21:09:33.302Z,20.03
2018-10-03T21:12:02.477Z,20.22
2018-10-03T21:14:31.942Z,20.16
2018-10-03T21:17:01.138Z,20.40
2018-10-03T21:19:30.249Z,20.16
2018-10-03T21:21:59.448Z,20.26
2018-10-03T21:24:28.590Z,20.42
2018-10-03T21:26:57.794Z,20.35
2018-10-03T21:29:27.004Z,19.90
2018-10-03T21:31:56.214Z,20.22
2018-10-03T21:34:25.332Z,20.06
2018-10-03T21:36:54.841Z,20.06
2018-10-03T21:39:24.069Z,19.99
2018-10-03T21:41:53.325Z,20.13
2018-10-03T21:44:22.595Z,19.94
2018-10-03T21:46:52.502Z,19.90
2018-10-03T21:49:22.601Z,19.92
2018-10-03T21:51:51.872Z,19.85
2018-10-03T21:54:21.445Z,19.57
2018-10-03T21:56:51.690Z,19.46
2018-10-03T21:59:21.256Z,19.37
2018-10-03T22:01:50.661Z,19.27
2018-10-03T22:04:19.875Z,19.10
2018-10-03T22:06:49.415Z,19.17
2018-10-03T22:09:18.583Z,19.01
2018-10-03T22:11:47.804Z,18.95
2018-10-03T22:14:17.063Z,18.92
2018-10-03T22:16:46.295Z,18.78
2018-10-03T22:19:15.481Z,18.75
2018-10-03T22:21:44.825Z,19.07
2018-10-03T22:24:14.026Z,18.56
2018-10-03T22:26:43.683Z,18.43
2018-10-03T22:29:14.135Z,18.48
2018-10-03T22:31:43.677Z,18.28
2018-10-03T22:34:12.914Z,18.34
2018-10-03T22:36:42.428Z,18.45
2018-10-03T22:39:11.632Z,18.25
2018-10-03T22:41:40.797Z,18.45
2018-10-03T22:44:10.407Z,18.33
2018-10-03T22:46:40.607Z,18.19
2018-10-03T22:49:10.127Z,18.20
2018-10-03T22:51:39.681Z,18.07
2018-10-03T22:54:08.997Z,17.88
2018-10-03T22:56:38.218Z,17.88
2018-10-03T22:59:07.771Z,17.86
2018-10-03T23:01:36.969Z,17.78
2018-10-03T23:04:06.297Z,17.78
2018-10-03T23:06:35.903Z,17.67
2018-10-03T23:09:05.638Z,17.69
2018-10-03T23:11:35.037Z,17.70
2018-10-03T23:14:05.103Z,17.85
2018-10-03T23:16:34.391Z,17.61
2018-10-03T23:19:03.619Z,17.75
2018-10-03T23:21:33.110Z,17.76
2018-10-03T23:24:02.330Z,17.65
2018-10-03T23:26:31.842Z,17.62
2018-10-03T23:29:01.350Z,17.53
2018-10-03T23:31:30.591Z,17.53
2018-10-03T23:33:59.769Z,17.65
2018-10-03T23:36:29.287Z,17.49
2018-10-03T23:38:58.429Z,17.56
2018-10-03T23:41:27.595Z,17.50
2018-10-03T23:43:57.053Z,17.58
2018-10-03T23:46:26.245Z,17.65
2018-10-03T23:48:55.461Z,17.61
2018-10-03T23:51:24.758Z,17.48
2018-10-03T23:53:53.924Z,17.48
2018-10-03T23:56:23.125Z,17.38
2018-10-03T23:58:52.711Z,17.62
